Arlington, Minnesota
Current Conditions -  °F | °C
As of 3:34 PM on Friday 19 Dec 2014 (Local Time) from KGYL Reporting Station
Haze Haze  
Wind Chill: 24°   Ceiling: 1000
Heat Index: 32°   Visibility: 5mi
Dew Point: 30°   Wind: 9mph
Humidity: 92%   Direction: 150°SSE
Pressure: 30.15"   Gusts: NA
Location:  44.61°N, 94.08°W
Report Text: KGYL 192134Z AUTO 15008KT 5SM BR OVC010 00/M01 A3015 RMK AO2 T00001012
Loading
Personal Weather Stations






























Interactive Weather Map New forecast layout! Learn more

10-Day Weather Forecast

Advertisements
Track Severe Weather on mobile